createdAt,value
2017-11-16T00:00:17.419Z,87.38
2017-11-16T00:01:17.396Z,87.19
2017-11-16T00:02:17.369Z,87.76
2017-11-16T00:03:17.351Z,87.62
2017-11-16T00:04:17.331Z,87.90
2017-11-16T00:05:17.303Z,87.57
2017-11-16T00:06:17.277Z,88.13
2017-11-16T00:07:17.273Z,88.42
2017-11-16T00:08:17.240Z,88.47
2017-11-16T00:09:17.217Z,88.61
2017-11-16T00:10:17.190Z,88.33
2017-11-16T00:11:17.181Z,88.33
2017-11-16T00:12:17.155Z,88.33
2017-11-16T00:13:17.121Z,88.33
2017-11-16T00:14:17.115Z,88.52
2017-11-16T00:15:17.075Z,88.71
2017-11-16T00:16:17.052Z,88.33
2017-11-16T00:17:17.031Z,87.95
2017-11-16T00:18:17.005Z,88.13
2017-11-16T00:19:16.998Z,87.95
2017-11-16T00:20:17.012Z,88.80
2017-11-16T00:21:16.950Z,88.13
2017-11-16T00:22:16.913Z,88.61
2017-11-16T00:23:16.893Z,88.52
2017-11-16T00:24:16.880Z,88.33
2017-11-16T00:25:16.842Z,88.71
2017-11-16T00:26:16.834Z,88.52
2017-11-16T00:27:16.800Z,88.80
2017-11-16T00:28:16.796Z,88.76
2017-11-16T00:29:16.752Z,88.90
2017-11-16T00:30:16.731Z,89.14
2017-11-16T00:31:16.711Z,89.09
2017-11-16T00:32:16.683Z,89.09
2017-11-16T00:33:16.663Z,89.33
2017-11-16T00:34:16.641Z,89.37
2017-11-16T00:35:16.643Z,89.14
2017-11-16T00:36:16.595Z,88.61
2017-11-16T00:37:16.583Z,88.80
2017-11-16T00:38:16.557Z,88.95
2017-11-16T00:39:16.524Z,89.04
2017-11-16T00:40:16.501Z,89.42
2017-11-16T00:41:16.478Z,89.52
2017-11-16T00:42:16.455Z,89.56
2017-11-16T00:43:16.441Z,89.14
2017-11-16T00:44:16.416Z,89.37
2017-11-16T00:45:16.394Z,89.09
2017-11-16T00:46:16.369Z,89.00
2017-11-16T00:47:16.346Z,89.66
2017-11-16T00:48:16.322Z,89.80
2017-11-16T00:49:16.296Z,89.90
2017-11-16T00:50:16.286Z,89.37
2017-11-16T00:51:16.247Z,89.94
2017-11-16T00:52:16.241Z,89.09
2017-11-16T00:53:16.203Z,88.61
2017-11-16T00:54:16.187Z,88.61
2017-11-16T00:55:16.167Z,88.47
2017-11-16T00:56:16.140Z,89.18
2017-11-16T00:57:16.118Z,89.33
2017-11-16T00:58:16.088Z,88.67
2017-11-16T00:59:16.112Z,88.61
2017-11-16T01:00:16.105Z,88.67
2017-11-16T01:01:16.020Z,87.90
2017-11-16T01:02:16.011Z,87.90
2017-11-16T01:03:15.976Z,88.71
2017-11-16T01:04:15.953Z,88.61
2017-11-16T01:05:15.932Z,87.95
2017-11-16T01:06:15.906Z,88.09
2017-11-16T01:07:15.882Z,88.80
2017-11-16T01:08:15.863Z,88.28
2017-11-16T01:09:15.854Z,88.19
2017-11-16T01:10:15.818Z,88.00
2017-11-16T01:11:15.797Z,87.71
2017-11-16T01:12:15.771Z,87.66
2017-11-16T01:13:15.749Z,87.34
2017-11-16T01:14:15.731Z,87.57
2017-11-16T01:15:15.706Z,87.14
2017-11-16T01:16:15.684Z,87.14
2017-11-16T01:17:15.660Z,87.57
2017-11-16T01:18:15.635Z,87.43
2017-11-16T01:19:15.628Z,87.05
2017-11-16T01:20:15.587Z,87.28
2017-11-16T01:21:15.575Z,87.09
2017-11-16T01:22:15.549Z,87.19
2017-11-16T01:23:15.535Z,87.05
2017-11-16T01:24:15.494Z,87.05
2017-11-16T01:25:15.473Z,87.43
2017-11-16T01:26:15.450Z,87.43
2017-11-16T01:27:15.427Z,87.34
2017-11-16T01:28:15.407Z,87.62
2017-11-16T01:29:15.382Z,87.43
2017-11-16T01:30:15.357Z,87.34
2017-11-16T01:31:15.338Z,87.52
2017-11-16T01:32:15.313Z,87.52
2017-11-16T01:33:15.290Z,87.52
2017-11-16T01:34:15.270Z,87.90
2017-11-16T01:35:15.241Z,88.09
2017-11-16T01:36:15.225Z,87.90
2017-11-16T01:37:15.202Z,87.90
2017-11-16T01:38:15.177Z,87.90
2017-11-16T01:39:15.184Z,88.00
2017-11-16T01:40:15.175Z,87.81
2017-11-16T01:41:15.104Z,87.62
2017-11-16T01:42:15.081Z,88.47
2017-11-16T01:43:15.060Z,88.09
2017-11-16T01:44:15.041Z,88.47
2017-11-16T01:45:15.020Z,88.67
2017-11-16T01:46:15.002Z,88.28
2017-11-16T01:47:14.984Z,88.67
2017-11-16T01:48:14.942Z,88.38
2017-11-16T01:49:14.922Z,88.47
2017-11-16T01:50:14.903Z,88.57
2017-11-16T01:51:14.882Z,88.47
2017-11-16T01:52:14.864Z,88.47
2017-11-16T01:53:14.838Z,88.57
2017-11-16T01:54:14.816Z,88.57
2017-11-16T01:55:14.793Z,88.47
2017-11-16T01:56:14.772Z,88.57
2017-11-16T01:57:14.747Z,88.47
2017-11-16T01:58:14.716Z,88.38
2017-11-16T01:59:14.694Z,88.85
2017-11-16T02:00:14.665Z,88.57
2017-11-16T02:01:14.646Z,88.47
2017-11-16T02:02:14.630Z,88.38
2017-11-16T02:03:14.604Z,88.47
2017-11-16T02:04:14.583Z,88.38
2017-11-16T02:05:14.552Z,88.38
2017-11-16T02:06:14.529Z,88.57
2017-11-16T02:07:14.509Z,88.09
2017-11-16T02:08:14.483Z,88.57
2017-11-16T02:09:14.460Z,88.09
2017-11-16T02:10:14.433Z,88.28
2017-11-16T02:11:14.443Z,88.28
2017-11-16T02:12:14.389Z,87.90
2017-11-16T02:13:14.369Z,88.00
2017-11-16T02:14:14.345Z,87.43
2017-11-16T02:15:14.323Z,88.00
2017-11-16T02:16:14.300Z,88.57
2017-11-16T02:17:14.274Z,88.38
2017-11-16T02:18:14.301Z,88.57
2017-11-16T02:19:14.282Z,88.76
2017-11-16T02:20:14.213Z,89.14
2017-11-16T02:21:14.196Z,88.57
2017-11-16T02:22:14.161Z,88.57
2017-11-16T02:23:14.138Z,88.19
2017-11-16T02:24:14.114Z,89.14
2017-11-16T02:25:14.092Z,88.95
2017-11-16T02:26:14.066Z,88.57
2017-11-16T02:27:14.050Z,88.95
2017-11-16T02:28:14.028Z,88.28
2017-11-16T02:29:13.993Z,88.09
2017-11-16T02:30:13.978Z,88.85
2017-11-16T02:31:13.962Z,89.14
2017-11-16T02:32:13.927Z,88.85
2017-11-16T02:33:13.919Z,88.09
2017-11-16T02:34:13.883Z,88.47
2017-11-16T02:35:13.878Z,88.28
2017-11-16T02:36:13.833Z,88.38
2017-11-16T02:37:13.847Z,88.38
2017-11-16T02:38:13.793Z,88.09
2017-11-16T02:39:13.771Z,88.28
2017-11-16T02:40:13.752Z,88.19
2017-11-16T02:41:13.717Z,88.09
2017-11-16T02:42:13.698Z,88.28
2017-11-16T02:43:13.677Z,87.90
2017-11-16T02:44:13.655Z,87.81
2017-11-16T02:45:13.636Z,87.71
2017-11-16T02:46:13.601Z,88.09
2017-11-16T02:47:13.580Z,87.71
2017-11-16T02:48:13.596Z,87.52
2017-11-16T02:49:37.217Z,87.34
2017-11-16T02:50:13.522Z,87.90
2017-11-16T02:51:13.487Z,87.81
2017-11-16T02:52:13.482Z,88.09
2017-11-16T02:53:13.440Z,87.34
2017-11-16T02:54:13.420Z,87.14
2017-11-16T02:55:13.399Z,87.14
2017-11-16T02:56:13.368Z,87.24
2017-11-16T02:57:13.349Z,87.43
2017-11-16T02:58:13.352Z,87.14
2017-11-16T02:59:13.352Z,86.76
2017-11-16T03:00:13.277Z,87.62
2017-11-16T03:01:13.258Z,87.24
2017-11-16T03:02:13.247Z,87.34
2017-11-16T03:03:13.209Z,86.86
2017-11-16T03:04:13.189Z,86.86
2017-11-16T03:05:13.166Z,86.86
2017-11-16T03:06:13.136Z,86.86
2017-11-16T03:07:13.127Z,86.67
2017-11-16T03:08:13.091Z,86.76
2017-11-16T03:09:13.091Z,86.38
2017-11-16T03:10:13.044Z,86.38
2017-11-16T03:11:13.028Z,86.15
2017-11-16T03:12:13.011Z,86.72
2017-11-16T03:13:12.976Z,86.72
2017-11-16T03:14:12.955Z,86.82
2017-11-16T03:15:12.927Z,86.91
2017-11-16T03:16:12.936Z,86.82
2017-11-16T03:17:12.890Z,86.72
2017-11-16T03:18:12.859Z,87.01
2017-11-16T03:19:12.848Z,87.10
2017-11-16T03:20:12.817Z,87.29
2017-11-16T03:21:12.792Z,87.38
2017-11-16T03:22:12.774Z,87.10
2017-11-16T03:23:12.741Z,87.29
2017-11-16T03:24:12.731Z,86.91
2017-11-16T03:25:12.696Z,87.10
2017-11-16T03:26:12.705Z,86.91
2017-11-16T03:27:12.656Z,86.34
2017-11-16T03:28:12.622Z,86.43
2017-11-16T03:29:12.614Z,87.01
2017-11-16T03:30:12.582Z,86.43
2017-11-16T03:31:12.557Z,86.72
2017-11-16T03:32:12.538Z,86.63
2017-11-16T03:33:12.505Z,86.15
2017-11-16T03:34:12.486Z,85.77
2017-11-16T03:35:12.460Z,86.15
2017-11-16T03:36:12.458Z,86.29
2017-11-16T03:37:12.472Z,86.19
2017-11-16T03:38:12.393Z,86.15
2017-11-16T03:39:12.371Z,86.00
2017-11-16T03:40:12.344Z,86.29
2017-11-16T03:41:12.320Z,85.91
2017-11-16T03:42:12.296Z,85.81
2017-11-16T03:43:12.274Z,85.62
2017-11-16T03:44:12.257Z,85.72
2017-11-16T03:45:12.225Z,85.15
2017-11-16T03:46:12.217Z,85.53
2017-11-16T03:47:12.183Z,85.05
2017-11-16T03:48:12.161Z,84.95
2017-11-16T03:49:12.133Z,85.24
2017-11-16T03:50:26.742Z,85.15
2017-11-16T03:51:12.096Z,84.95
2017-11-16T03:52:12.076Z,84.77
2017-11-16T03:53:12.066Z,84.86
2017-11-16T03:54:12.027Z,84.95
2017-11-16T03:55:11.999Z,84.58
2017-11-16T03:56:11.980Z,84.39
2017-11-16T03:57:11.949Z,84.86
2017-11-16T03:58:11.928Z,84.95
2017-11-16T03:59:11.902Z,84.77
2017-11-16T04:00:11.877Z,84.58
2017-11-16T04:01:11.860Z,84.77
2017-11-16T04:02:11.834Z,85.05
2017-11-16T04:03:11.816Z,84.86
2017-11-16T04:04:11.790Z,84.58
2017-11-16T04:05:11.766Z,84.58
2017-11-16T04:06:11.738Z,84.39
2017-11-16T04:07:11.723Z,84.58
2017-11-16T04:08:11.716Z,84.77
2017-11-16T04:09:11.667Z,84.67
2017-11-16T04:10:11.667Z,84.67
2017-11-16T04:11:11.632Z,84.86
2017-11-16T04:12:11.609Z,84.95
2017-11-16T04:13:11.590Z,84.58
2017-11-16T04:14:11.560Z,84.86
2017-11-16T04:15:11.533Z,84.77
2017-11-16T04:16:11.511Z,84.67
2017-11-16T04:17:11.527Z,84.95
2017-11-16T04:18:11.468Z,84.77
2017-11-16T04:19:11.446Z,84.86
2017-11-16T04:20:11.427Z,84.10
2017-11-16T04:21:11.400Z,84.29
2017-11-16T04:22:11.373Z,84.29
2017-11-16T04:23:11.349Z,85.15
2017-11-16T04:24:11.323Z,84.10
2017-11-16T04:25:11.304Z,84.77
2017-11-16T04:26:11.284Z,85.05
2017-11-16T04:27:11.268Z,84.86
2017-11-16T04:28:11.232Z,84.58
2017-11-16T04:29:11.216Z,84.39
2017-11-16T04:30:11.188Z,84.29
2017-11-16T04:31:11.168Z,84.29
2017-11-16T04:32:11.166Z,84.29
2017-11-16T04:33:11.116Z,84.29
2017-11-16T04:34:11.110Z,84.77
2017-11-16T04:35:11.072Z,84.39
2017-11-16T04:36:11.048Z,84.20
2017-11-16T04:37:11.032Z,84.20
2017-11-16T04:38:10.999Z,84.39
2017-11-16T04:39:10.979Z,84.29
2017-11-16T04:40:10.959Z,84.48
2017-11-16T04:41:10.935Z,84.29
2017-11-16T04:42:10.947Z,84.48
2017-11-16T04:43:10.888Z,84.48
2017-11-16T04:44:10.874Z,84.10
2017-11-16T04:45:10.841Z,83.91
2017-11-16T04:46:10.824Z,83.91
2017-11-16T04:47:10.799Z,84.29
2017-11-16T04:48:10.778Z,84.01
2017-11-16T04:49:10.776Z,84.48
2017-11-16T04:50:10.731Z,84.10
2017-11-16T04:51:10.723Z,84.29
2017-11-16T04:52:10.682Z,84.39
2017-11-16T04:53:10.657Z,84.29
2017-11-16T04:54:10.635Z,84.86
2017-11-16T04:55:10.609Z,84.77
2017-11-16T04:56:10.607Z,84.86
2017-11-16T04:57:10.567Z,85.15
2017-11-16T04:58:10.548Z,85.05
2017-11-16T04:59:10.524Z,85.53
2017-11-16T05:00:10.494Z,85.24
2017-11-16T05:01:10.477Z,85.15
2017-11-16T05:02:10.446Z,85.05
2017-11-16T05:03:10.430Z,84.77
2017-11-16T05:04:10.404Z,85.24
2017-11-16T05:05:10.379Z,85.05
2017-11-16T05:06:10.365Z,84.86
2017-11-16T05:07:10.336Z,84.95
2017-11-16T05:08:10.337Z,84.86
2017-11-16T05:09:10.284Z,85.34
2017-11-16T05:10:10.267Z,85.05
2017-11-16T05:11:10.246Z,85.05
2017-11-16T05:12:10.218Z,85.34
2017-11-16T05:13:10.197Z,85.15
2017-11-16T05:14:10.170Z,85.05
2017-11-16T05:15:10.154Z,85.05
2017-11-16T05:16:10.122Z,85.05
2017-11-16T05:17:10.105Z,84.86
2017-11-16T05:18:10.092Z,85.24
2017-11-16T05:19:10.059Z,85.43
2017-11-16T05:20:10.036Z,84.77
2017-11-16T05:21:10.007Z,84.77
2017-11-16T05:22:09.987Z,84.77
2017-11-16T05:23:09.970Z,84.86
2017-11-16T05:24:09.939Z,84.95
2017-11-16T05:25:09.931Z,85.05
2017-11-16T05:26:09.894Z,84.77
2017-11-16T05:27:09.870Z,84.77
2017-11-16T05:28:09.847Z,84.77
2017-11-16T05:29:09.825Z,84.86
2017-11-16T05:30:09.804Z,84.86
2017-11-16T05:31:09.777Z,84.77
2017-11-16T05:32:09.768Z,84.67
2017-11-16T05:33:09.731Z,84.95
2017-11-16T05:34:09.714Z,84.86
2017-11-16T05:35:09.713Z,84.39
2017-11-16T05:36:09.721Z,84.58
2017-11-16T05:37:09.717Z,84.39
2017-11-16T05:38:09.626Z,84.77
2017-11-16T05:39:09.591Z,85.43
2017-11-16T05:40:09.574Z,85.15
2017-11-16T05:41:09.552Z,85.24
2017-11-16T05:42:09.539Z,84.95
2017-11-16T05:43:09.503Z,84.77
2017-11-16T05:44:09.480Z,84.86
2017-11-16T05:45:09.457Z,85.15
2017-11-16T05:46:09.429Z,84.48
2017-11-16T05:47:09.407Z,84.86
2017-11-16T05:48:09.382Z,84.20
2017-11-16T05:49:09.381Z,84.25
2017-11-16T05:50:09.363Z,84.58
2017-11-16T05:51:09.313Z,84.77
2017-11-16T05:52:09.298Z,84.77
2017-11-16T05:53:09.269Z,84.95
2017-11-16T05:54:09.260Z,85.43
2017-11-16T05:55:09.219Z,85.53
2017-11-16T05:56:09.223Z,85.49
2017-11-16T05:57:09.173Z,85.01
2017-11-16T05:58:09.151Z,85.05
2017-11-16T05:59:09.142Z,85.24
2017-11-16T06:00:09.115Z,84.95
2017-11-16T06:01:09.082Z,84.77
2017-11-16T06:02:09.064Z,85.43
2017-11-16T06:03:09.035Z,84.95
2017-11-16T06:04:09.018Z,84.77
2017-11-16T06:05:08.990Z,84.77
2017-11-16T06:06:08.992Z,85.24
2017-11-16T06:07:08.943Z,85.34
2017-11-16T06:08:08.918Z,84.86
2017-11-16T06:09:08.895Z,84.95
2017-11-16T06:10:08.874Z,84.29
2017-11-16T06:11:08.866Z,84.29
2017-11-16T06:12:08.826Z,84.20
2017-11-16T06:13:08.802Z,84.10
2017-11-16T06:14:08.775Z,84.01
2017-11-16T06:15:08.801Z,83.62
2017-11-16T06:16:08.738Z,83.72
2017-11-16T06:17:08.717Z,83.91
2017-11-16T06:18:08.684Z,84.01
2017-11-16T06:19:08.665Z,83.91
2017-11-16T06:20:08.641Z,84.29
2017-11-16T06:21:08.619Z,84.01
2017-11-16T06:22:08.602Z,84.95
2017-11-16T06:23:08.614Z,84.77
2017-11-16T06:24:08.546Z,84.67
2017-11-16T06:25:08.526Z,84.95
2017-11-16T06:26:08.508Z,84.67
2017-11-16T06:27:08.481Z,84.48
2017-11-16T06:28:08.480Z,84.48
2017-11-16T06:29:08.437Z,84.39
2017-11-16T06:30:08.405Z,83.82
2017-11-16T06:31:08.385Z,84.01
2017-11-16T06:32:08.372Z,83.82
2017-11-16T06:33:08.363Z,84.01
2017-11-16T06:34:08.311Z,83.72
2017-11-16T06:35:08.289Z,83.72
2017-11-16T06:36:08.300Z,83.53
2017-11-16T06:37:08.249Z,84.01
2017-11-16T06:38:08.232Z,84.01
2017-11-16T06:39:08.204Z,84.10
2017-11-16T06:40:08.193Z,83.91
2017-11-16T06:41:08.149Z,83.82
2017-11-16T06:42:08.132Z,83.82
2017-11-16T06:43:08.132Z,83.44
2017-11-16T06:44:08.086Z,83.44
2017-11-16T06:45:08.055Z,83.25
2017-11-16T06:46:08.032Z,83.91
2017-11-16T06:47:08.021Z,83.34
2017-11-16T06:48:07.994Z,83.72
2017-11-16T06:49:08.012Z,83.72
2017-11-16T06:50:07.958Z,83.91
2017-11-16T06:51:43.762Z,84.01
2017-11-16T06:52:07.892Z,84.01
2017-11-16T06:53:07.881Z,83.97
2017-11-16T06:54:07.882Z,83.82
2017-11-16T06:55:07.823Z,83.97
2017-11-16T06:56:07.800Z,84.06
2017-11-16T06:57:07.777Z,84.72
2017-11-16T06:58:07.759Z,84.53
2017-11-16T06:59:07.741Z,84.63
2017-11-16T07:00:07.709Z,84.53
2017-11-16T07:01:07.689Z,84.72
2017-11-16T07:02:07.663Z,84.63
2017-11-16T07:03:07.636Z,84.63
2017-11-16T07:04:07.609Z,84.91
2017-11-16T07:05:07.590Z,84.91
2017-11-16T07:06:07.565Z,84.72
2017-11-16T07:07:07.541Z,84.44
2017-11-16T07:08:07.515Z,84.63
2017-11-16T07:09:07.500Z,84.63
2017-11-16T07:10:07.474Z,85.20
2017-11-16T07:11:07.449Z,85.01
2017-11-16T07:12:07.425Z,85.20
2017-11-16T07:13:07.399Z,85.20
2017-11-16T07:14:07.377Z,84.72
2017-11-16T07:15:07.361Z,85.01
2017-11-16T07:16:07.325Z,84.82
2017-11-16T07:17:07.305Z,85.11
2017-11-16T07:18:07.280Z,85.11
2017-11-16T07:19:07.273Z,85.58
2017-11-16T07:20:07.239Z,85.49
2017-11-16T07:21:07.211Z,85.01
2017-11-16T07:22:13.773Z,85.11
2017-11-16T07:23:07.163Z,85.20
2017-11-16T07:24:07.140Z,84.53
2017-11-16T07:25:07.117Z,84.72
2017-11-16T07:26:07.087Z,84.82
2017-11-16T07:27:07.078Z,84.63
2017-11-16T07:28:07.043Z,85.20
2017-11-16T07:29:07.027Z,85.20
2017-11-16T07:30:06.995Z,85.20
2017-11-16T07:31:07.009Z,84.91
2017-11-16T07:32:06.957Z,85.39
2017-11-16T07:33:06.977Z,84.72
2017-11-16T07:34:06.904Z,84.91
2017-11-16T07:35:06.888Z,84.72
2017-11-16T07:36:06.857Z,84.53
2017-11-16T07:37:06.842Z,84.72
2017-11-16T07:38:06.810Z,85.01
2017-11-16T07:39:06.790Z,85.01
2017-11-16T07:40:06.760Z,84.77
2017-11-16T07:41:06.739Z,84.72
2017-11-16T07:42:06.713Z,84.72
2017-11-16T07:43:06.692Z,84.91
2017-11-16T07:44:06.668Z,84.82
2017-11-16T07:45:06.648Z,84.82
2017-11-16T07:46:06.624Z,84.91
2017-11-16T07:47:06.607Z,84.06
2017-11-16T07:48:06.569Z,84.29
2017-11-16T07:49:06.560Z,84.20
2017-11-16T07:50:06.528Z,84.44
2017-11-16T07:51:06.505Z,84.25
2017-11-16T07:52:06.479Z,84.39
2017-11-16T07:53:06.455Z,84.34
2017-11-16T07:54:06.444Z,84.20
2017-11-16T07:55:06.411Z,84.82
2017-11-16T07:56:06.388Z,84.10
2017-11-16T07:57:06.368Z,84.58
2017-11-16T07:58:06.374Z,84.72
2017-11-16T07:59:06.329Z,84.16
2017-11-16T08:00:06.292Z,84.10
2017-11-16T08:01:06.284Z,84.20
2017-11-16T08:02:06.250Z,84.82
2017-11-16T08:03:06.221Z,84.29
2017-11-16T08:04:06.202Z,84.48
2017-11-16T08:05:06.182Z,83.72
2017-11-16T08:06:06.155Z,83.87
2017-11-16T08:07:06.130Z,84.25
2017-11-16T08:08:06.100Z,84.29
2017-11-16T08:09:06.078Z,83.82
2017-11-16T08:10:06.058Z,84.10
2017-11-16T08:11:06.034Z,83.87
2017-11-16T08:12:06.056Z,83.82
2017-11-16T08:13:05.984Z,84.48
2017-11-16T08:14:05.964Z,84.20
2017-11-16T08:15:05.943Z,83.91
2017-11-16T08:16:05.915Z,84.20
2017-11-16T08:17:05.893Z,83.82
2017-11-16T08:18:05.863Z,83.72
2017-11-16T08:19:05.849Z,84.29
2017-11-16T08:20:05.988Z,83.25
2017-11-16T08:21:05.804Z,84.20
2017-11-16T08:22:05.779Z,84.01
2017-11-16T08:23:20.285Z,83.82
2017-11-16T08:24:05.729Z,83.82
2017-11-16T08:25:05.706Z,83.91
2017-11-16T08:26:05.699Z,83.82
2017-11-16T08:27:05.662Z,83.44
2017-11-16T08:28:05.961Z,83.34
2017-11-16T08:29:05.691Z,83.25
2017-11-16T08:30:05.944Z,83.72
2017-11-16T08:31:05.592Z,83.15
2017-11-16T08:32:05.541Z,83.15
2017-11-16T08:33:05.514Z,83.15
2017-11-16T08:34:05.506Z,83.62
2017-11-16T08:35:05.470Z,83.72
2017-11-16T08:36:05.454Z,83.34
2017-11-16T08:37:05.422Z,83.72
2017-11-16T08:38:05.402Z,83.15
2017-11-16T08:39:05.376Z,83.53
2017-11-16T08:40:05.353Z,83.53
2017-11-16T08:41:05.332Z,83.82
2017-11-16T08:42:05.310Z,83.91
2017-11-16T08:43:05.281Z,83.72
2017-11-16T08:44:05.266Z,83.44
2017-11-16T08:45:05.234Z,83.34
2017-11-16T08:46:05.220Z,83.25
2017-11-16T08:47:05.195Z,83.53
2017-11-16T08:48:05.166Z,83.34
2017-11-16T08:49:05.145Z,83.44
2017-11-16T08:50:05.119Z,83.44
2017-11-16T08:51:05.146Z,83.34
2017-11-16T08:52:05.081Z,82.96
2017-11-16T08:53:05.049Z,83.15
2017-11-16T08:54:05.029Z,82.87
2017-11-16T08:55:05.006Z,82.58
2017-11-16T08:56:04.987Z,82.96
2017-11-16T08:57:04.967Z,83.25
2017-11-16T08:58:04.935Z,83.25
2017-11-16T08:59:04.908Z,83.06
2017-11-16T09:00:04.885Z,83.25
2017-11-16T09:01:04.871Z,83.25
2017-11-16T09:02:04.843Z,83.34
2017-11-16T09:03:04.825Z,83.06
2017-11-16T09:04:04.793Z,83.25
2017-11-16T09:05:04.769Z,82.68
2017-11-16T09:06:04.757Z,82.96
2017-11-16T09:07:04.745Z,82.58
2017-11-16T09:08:04.699Z,82.87
2017-11-16T09:09:04.676Z,82.58
2017-11-16T09:10:04.653Z,82.49
2017-11-16T09:11:04.633Z,82.39
2017-11-16T09:12:04.605Z,82.77
2017-11-16T09:13:04.586Z,83.15
2017-11-16T09:14:04.561Z,82.68
2017-11-16T09:15:04.553Z,83.15
2017-11-16T09:16:04.516Z,82.96
2017-11-16T09:17:04.497Z,82.29
2017-11-16T09:18:04.469Z,82.49
2017-11-16T09:19:04.444Z,82.77
2017-11-16T09:20:04.419Z,82.29
2017-11-16T09:21:04.399Z,82.58
2017-11-16T09:22:04.373Z,81.73
2017-11-16T09:23:04.351Z,82.10
2017-11-16T09:24:04.330Z,81.92
2017-11-16T09:25:04.313Z,82.01
2017-11-16T09:26:04.292Z,82.01
2017-11-16T09:27:04.258Z,82.01
2017-11-16T09:28:04.232Z,82.39
2017-11-16T09:29:04.210Z,82.68
2017-11-16T09:30:04.220Z,82.49
2017-11-16T09:31:04.170Z,82.68
2017-11-16T09:32:04.144Z,82.58
2017-11-16T09:33:04.126Z,82.77
2017-11-16T09:34:04.099Z,82.49
2017-11-16T09:35:04.075Z,82.39
2017-11-16T09:36:04.049Z,83.06
2017-11-16T09:37:04.027Z,83.53
2017-11-16T09:38:04.001Z,83.53
2017-11-16T09:39:03.986Z,83.25
2017-11-16T09:40:03.957Z,82.58
2017-11-16T09:41:03.935Z,82.49
2017-11-16T09:42:03.909Z,82.39
2017-11-16T09:43:03.898Z,82.68
2017-11-16T09:44:03.864Z,82.58
2017-11-16T09:45:03.845Z,82.01
2017-11-16T09:46:03.817Z,82.20
2017-11-16T09:47:03.801Z,82.39
2017-11-16T09:48:03.771Z,81.44
2017-11-16T09:49:03.758Z,81.73
2017-11-16T09:50:03.733Z,81.54
2017-11-16T09:51:03.703Z,81.54
2017-11-16T09:52:03.675Z,81.73
2017-11-16T09:53:03.662Z,81.54
2017-11-16T09:54:03.633Z,81.73
2017-11-16T09:55:03.608Z,81.63
2017-11-16T09:56:03.588Z,81.63
2017-11-16T09:57:03.559Z,81.63
2017-11-16T09:58:03.539Z,81.73
2017-11-16T09:59:03.517Z,81.63
2017-11-16T10:00:03.492Z,81.44
2017-11-16T10:01:03.468Z,81.35
2017-11-16T10:02:03.459Z,81.92
2017-11-16T10:03:03.424Z,81.44
2017-11-16T10:04:03.402Z,81.06
2017-11-16T10:05:03.376Z,81.25
2017-11-16T10:06:03.361Z,81.25
2017-11-16T10:07:03.332Z,80.87
2017-11-16T10:08:03.314Z,81.16
2017-11-16T10:09:03.312Z,80.77
2017-11-16T10:10:03.267Z,81.35
2017-11-16T10:11:03.242Z,80.77
2017-11-16T10:12:03.213Z,81.06
2017-11-16T10:13:03.193Z,81.16
2017-11-16T10:14:03.169Z,80.87
2017-11-16T10:15:03.149Z,81.16
2017-11-16T10:16:03.129Z,81.06
2017-11-16T10:17:03.100Z,80.96
2017-11-16T10:18:03.077Z,80.72
2017-11-16T10:19:03.054Z,80.82
2017-11-16T10:20:03.042Z,80.30
2017-11-16T10:21:03.014Z,80.24
2017-11-16T10:22:02.981Z,79.96
2017-11-16T10:23:02.963Z,80.24
2017-11-16T10:24:02.967Z,80.34
2017-11-16T10:25:02.922Z,80.44
2017-11-16T10:26:02.890Z,80.34
2017-11-16T10:27:02.868Z,80.15
2017-11-16T10:28:02.852Z,80.44
2017-11-16T10:29:02.824Z,80.44
2017-11-16T10:30:02.801Z,80.34
2017-11-16T10:31:02.779Z,80.34
2017-11-16T10:32:02.753Z,80.24
2017-11-16T10:33:02.733Z,80.05
2017-11-16T10:34:02.709Z,80.15
2017-11-16T10:35:02.686Z,80.34
2017-11-16T10:36:02.659Z,80.15
2017-11-16T10:37:02.657Z,79.77
2017-11-16T10:38:02.623Z,79.49
2017-11-16T10:39:02.592Z,79.77
2017-11-16T10:40:02.569Z,79.86
2017-11-16T10:41:02.549Z,79.20
2017-11-16T10:42:02.523Z,79.39
2017-11-16T10:43:02.502Z,79.39
2017-11-16T10:44:02.476Z,79.20
2017-11-16T10:45:02.456Z,79.01
2017-11-16T10:46:02.437Z,78.82
2017-11-16T10:47:02.431Z,79.11
2017-11-16T10:48:02.388Z,79.01
2017-11-16T10:49:02.402Z,78.82
2017-11-16T10:50:02.361Z,78.63
2017-11-16T10:51:02.319Z,78.72
2017-11-16T10:52:02.299Z,78.44
2017-11-16T10:53:02.273Z,78.34
2017-11-16T10:54:02.259Z,78.72
2017-11-16T10:55:02.234Z,78.44
2017-11-16T10:56:02.205Z,78.63
2017-11-16T10:57:02.184Z,77.58
2017-11-16T10:58:02.159Z,78.16
2017-11-16T10:59:02.150Z,77.62
2017-11-16T11:00:02.114Z,78.06
2017-11-16T11:01:02.106Z,78.25
2017-11-16T11:02:02.075Z,78.29
2017-11-16T11:03:02.051Z,78.48
2017-11-16T11:04:02.029Z,78.29
2017-11-16T11:05:02.002Z,78.29
2017-11-16T11:06:01.977Z,77.81
2017-11-16T11:07:01.952Z,77.81
2017-11-16T11:08:01.934Z,77.91
2017-11-16T11:09:01.913Z,77.81
2017-11-16T11:10:01.894Z,78.00
2017-11-16T11:11:01.870Z,77.43
2017-11-16T11:12:01.844Z,77.62
2017-11-16T11:13:01.818Z,77.62
2017-11-16T11:14:01.800Z,77.81
2017-11-16T11:15:01.774Z,77.62
2017-11-16T11:16:01.760Z,77.15
2017-11-16T11:17:01.746Z,77.81
2017-11-16T11:18:01.717Z,77.81
2017-11-16T11:19:01.683Z,77.43
2017-11-16T11:20:01.664Z,77.53
2017-11-16T11:21:01.639Z,77.15
2017-11-16T11:22:01.616Z,76.86
2017-11-16T11:23:01.604Z,77.05
2017-11-16T11:24:01.570Z,76.96
2017-11-16T11:25:01.552Z,76.90
2017-11-16T11:26:01.528Z,77.09
2017-11-16T11:27:01.506Z,76.71
2017-11-16T11:28:01.483Z,76.71
2017-11-16T11:29:01.493Z,76.14
2017-11-16T11:30:01.438Z,76.33
2017-11-16T11:31:01.413Z,76.14
2017-11-16T11:32:01.393Z,75.95
2017-11-16T11:33:01.369Z,75.57
2017-11-16T11:34:01.350Z,75.57
2017-11-16T11:35:01.326Z,75.19
2017-11-16T11:36:01.303Z,74.80
2017-11-16T11:37:01.281Z,74.71
2017-11-16T11:38:01.259Z,74.65
2017-11-16T11:39:01.238Z,75.13
2017-11-16T11:40:01.214Z,74.75
2017-11-16T11:41:01.196Z,74.37
2017-11-16T11:42:01.170Z,74.94
2017-11-16T11:43:01.150Z,75.13
2017-11-16T11:44:01.128Z,74.27
2017-11-16T11:45:01.110Z,74.65
2017-11-16T11:46:01.080Z,73.89
2017-11-16T11:47:01.066Z,73.70
2017-11-16T11:48:01.044Z,72.94
2017-11-16T11:49:01.016Z,72.94
2017-11-16T11:50:00.992Z,73.51
2017-11-16T11:51:00.973Z,73.51
2017-11-16T11:52:00.950Z,73.51
2017-11-16T11:53:00.927Z,73.41
2017-11-16T11:54:03.845Z,72.65
2017-11-16T11:55:00.889Z,72.56
2017-11-16T11:56:00.863Z,72.46
2017-11-16T11:57:00.843Z,72.85
2017-11-16T11:58:00.821Z,72.65
2017-11-16T11:59:00.797Z,72.65
2017-11-16T12:00:00.785Z,72.75
2017-11-16T12:01:00.753Z,72.46
2017-11-16T12:02:00.741Z,73.13
2017-11-16T12:03:00.715Z,73.51
2017-11-16T12:04:00.697Z,73.32
2017-11-16T12:05:00.668Z,73.70
2017-11-16T12:06:00.644Z,73.51
2017-11-16T12:07:00.622Z,73.03
2017-11-16T12:08:00.602Z,73.03
2017-11-16T12:09:00.625Z,73.03
2017-11-16T12:10:00.558Z,72.65
2017-11-16T12:11:00.533Z,72.65
2017-11-16T12:12:00.515Z,72.65
2017-11-16T12:13:00.489Z,72.85
2017-11-16T12:14:00.476Z,72.56
2017-11-16T12:15:00.453Z,72.46
2017-11-16T12:16:00.425Z,72.56
2017-11-16T12:17:00.403Z,72.94
2017-11-16T12:18:00.382Z,72.46
2017-11-16T12:19:00.370Z,72.37
2017-11-16T12:20:00.338Z,72.46
2017-11-16T12:21:00.315Z,73.41
2017-11-16T12:22:00.299Z,73.22
2017-11-16T12:23:00.275Z,73.22
2017-11-16T12:24:00.256Z,73.13
2017-11-16T12:25:00.236Z,73.51
2017-11-16T12:26:00.212Z,73.13
2017-11-16T12:27:00.187Z,73.32
2017-11-16T12:28:00.169Z,73.13
2017-11-16T12:29:00.147Z,73.13
2017-11-16T12:30:00.120Z,73.32
2017-11-16T12:31:00.101Z,72.94
2017-11-16T12:32:00.076Z,73.41
2017-11-16T12:33:00.060Z,73.41
2017-11-16T12:34:00.034Z,73.13
2017-11-16T12:35:00.015Z,73.03
2017-11-16T12:35:59.990Z,73.32
2017-11-16T12:36:59.965Z,73.03
2017-11-16T12:37:59.947Z,73.03
2017-11-16T12:38:59.923Z,73.22
2017-11-16T12:39:59.911Z,73.22
2017-11-16T12:40:59.879Z,72.56
2017-11-16T12:41:59.862Z,72.46
2017-11-16T12:42:59.837Z,72.85
2017-11-16T12:43:59.814Z,72.65
2017-11-16T12:44:59.793Z,72.37
2017-11-16T12:45:59.773Z,73.03
2017-11-16T12:46:59.763Z,73.13
2017-11-16T12:47:59.741Z,72.94
2017-11-16T12:48:59.741Z,72.85
2017-11-16T12:49:59.684Z,72.94
2017-11-16T12:50:59.663Z,72.85
2017-11-16T12:51:59.696Z,72.37